Time;durP1;ratioP1;P1;durP2;ratioP2;P2;SDS_P1;SDS_P2;PMS_P1;PMS_P2;Temp;Humidity;BMP_temperature;BMP_pressure;BME280_temperature;BME280_humidity;BME280_pressure;Samples;Min_cycle;Max_cycle;Signal;HPM_P1;HPM_P2
2022/05/03 00:00:09;;;;;;;11.00;9.73;;;11.30;99.90;;;;;;4980928;28;20255;-31
2022/05/03 00:02:45;;;;;;;12.33;11.03;;;11.30;99.90;;;;;;4995279;28;20194;-32
2022/05/03 00:05:17;;;;;;;11.30;10.20;;;11.30;99.90;;;;;;4995219;28;20187;-32
2022/05/03 00:07:51;;;;;;;12.27;10.57;;;11.30;99.90;;;;;;4994842;28;20179;-32
2022/05/03 00:10:23;;;;;;;11.67;10.37;;;11.20;99.90;;;;;;4995065;28;20680;-32
2022/05/03 00:12:57;;;;;;;11.57;10.37;;;11.20;99.90;;;;;;4995008;28;20222;-31
2022/05/03 00:15:24;;;;;;;12.23;9.53;;;11.20;99.90;;;;;;4994909;28;20176;-31
2022/05/03 00:17:52;;;;;;;11.23;10.17;;;11.20;99.90;;;;;;4978690;28;20183;-31
2022/05/03 00:20:18;;;;;;;12.50;11.30;;;11.20;99.90;;;;;;4994356;28;20205;-32
2022/05/03 00:22:45;;;;;;;14.27;11.67;;;11.20;99.90;;;;;;4978899;28;20217;-31
2022/05/03 00:25:11;;;;;;;12.73;11.40;;;11.20;99.90;;;;;;4994974;28;20193;-32
2022/05/03 00:27:37;;;;;;;13.10;11.47;;;11.20;99.90;;;;;;4978415;28;20179;-31
2022/05/03 00:30:04;;;;;;;13.13;11.70;;;11.00;99.90;;;;;;4991053;28;20703;-31
2022/05/03 00:32:31;;;;;;;12.23;11.03;;;11.00;99.90;;;;;;4975049;28;20243;-32
2022/05/03 00:35:00;;;;;;;12.07;10.80;;;11.10;99.90;;;;;;4958875;28;20263;-31
2022/05/03 00:37:27;;;;;;;11.33;10.23;;;11.20;99.90;;;;;;4975294;28;20195;-31
2022/05/03 00:39:52;;;;;;;12.40;11.10;;;11.20;99.90;;;;;;4958718;28;20298;-32
2022/05/03 00:42:29;;;;;;;11.70;10.50;;;11.20;99.90;;;;;;4992374;28;20183;-31
2022/05/03 00:45:10;;;;;;;11.30;10.10;;;11.10;99.90;;;;;;4975202;28;20206;-31
2022/05/03 00:47:56;;;;;;;11.63;10.53;;;11.10;99.90;;;;;;4974840;28;20265;-32
2022/05/03 00:50:48;;;;;;;11.00;9.83;;;11.00;99.90;;;;;;4975061;28;20207;-32
2022/05/03 00:53:37;;;;;;;12.03;9.97;;;11.00;99.90;;;;;;4959973;28;20200;-32
2022/05/03 00:56:27;;;;;;;11.17;10.03;;;10.90;99.90;;;;;;4953709;28;20238;-32
2022/05/03 00:59:07;;;;;;;11.47;10.17;;;11.00;99.90;;;;;;4974417;28;20688;-31
2022/05/03 01:02:03;;;;;;;12.20;10.83;;;10.90;99.90;;;;;;4974650;28;20180;-32
2022/05/03 01:04:56;;;;;;;11.23;10.13;;;10.90;99.90;;;;;;4974697;28;20180;-32
2022/05/03 01:07:31;;;;;;;11.60;10.40;;;10.90;99.90;;;;;;4974767;28;20184;-32
2022/05/03 01:10:26;;;;;;;11.47;10.37;;;10.90;99.90;;;;;;4974244;28;20207;-32
2022/05/03 01:13:16;;;;;;;11.37;10.17;;;10.80;99.90;;;;;;4973900;28;20247;-32
2022/05/03 01:15:51;;;;;;;11.70;10.50;;;10.70;99.90;;;;;;4974595;28;20188;-31
2022/05/03 01:18:48;;;;;;;11.97;10.77;;;10.70;99.90;;;;;;4991936;28;20178;-32
2022/05/03 01:22:01;;;;;;;11.73;10.53;;;10.60;99.90;;;;;;4958617;28;20191;-32
2022/05/03 01:24:52;;;;;;;11.87;10.67;;;10.40;99.90;;;;;;4947541;28;20200;-32
2022/05/03 01:27:46;;;;;;;11.87;10.67;;;10.20;99.90;;;;;;4974020;28;20177;-32
2022/05/03 01:30:12;;;;;;;13.30;11.23;;;10.20;99.90;;;;;;4982801;28;20211;-32
2022/05/03 01:32:43;;;;;;;11.37;10.07;;;10.20;99.90;;;;;;4993800;28;20310;-31
2022/05/03 01:35:13;;;;;;;11.30;10.10;;;10.20;99.90;;;;;;4993816;28;20206;-31
2022/05/03 01:37:43;;;;;;;11.53;10.37;;;10.20;99.90;;;;;;4993464;28;20179;-31
2022/05/03 01:40:21;;;;;;;10.90;9.77;;;10.20;99.90;;;;;;4977357;28;20306;-31
2022/05/03 01:43:02;;;;;;;10.37;9.43;;;10.20;99.90;;;;;;4993886;28;20183;-31
2022/05/03 01:45:37;;;;;;;11.33;10.23;;;10.20;99.90;;;;;;4993555;28;20226;-31
2022/05/03 01:51:55;;;;;;;12.60;10.17;;;10.00;99.90;;;;;;4993494;28;20486;-31
2022/05/03 01:54:27;;;;;;;10.70;9.70;;;10.00;99.90;;;;;;4977196;28;20287;-31
2022/05/03 01:57:07;;;;;;;9.97;8.93;;;10.00;99.90;;;;;;4993629;28;20225;-32
2022/05/03 01:59:39;;;;;;;10.67;9.00;;;10.00;99.90;;;;;;4989811;28;20218;-32
2022/05/03 02:02:25;;;;;;;10.03;9.03;;;10.00;99.90;;;;;;4973999;28;20194;-31
2022/05/03 02:05:08;;;;;;;10.23;9.13;;;9.90;99.90;;;;;;4973795;28;20164;-31
2022/05/03 02:07:56;;;;;;;10.17;9.07;;;9.90;99.90;;;;;;4961546;28;20206;-31
2022/05/03 02:10:45;;;;;;;10.67;9.57;;;9.90;99.90;;;;;;4961736;28;20243;-31
2022/05/03 02:16:53;;;;;;;10.93;9.83;;;10.00;99.90;;;;;;4977675;28;20219;-31
2022/05/03 02:19:52;;;;;;;10.17;9.17;;;10.00;99.90;;;;;;4994677;28;20200;-31
2022/05/03 02:22:40;;;;;;;10.67;9.57;;;9.90;99.90;;;;;;4977344;28;20188;-31
2022/05/03 02:25:12;;;;;;;10.40;9.30;;;9.80;99.90;;;;;;4977550;28;20204;-32
2022/05/03 02:27:45;;;;;;;11.80;10.60;;;9.60;99.90;;;;;;4961101;28;20241;-31
2022/05/03 02:30:14;;;;;;;10.23;9.13;;;9.50;99.90;;;;;;4986166;28;20215;-31
2022/05/03 02:32:52;;;;;;;11.33;10.23;;;9.30;99.90;;;;;;4980633;28;20211;-32
2022/05/03 02:35:23;;;;;;;11.53;10.37;;;9.20;99.90;;;;;;4980434;28;20196;-31
2022/05/03 02:37:56;;;;;;;11.00;9.87;;;9.10;99.90;;;;;;4980275;28;20183;-32
2022/05/03 02:40:25;;;;;;;12.50;9.93;;;9.10;99.90;;;;;;4980309;28;20198;-31
2022/05/03 02:42:52;;;;;;;11.97;10.77;;;9.10;99.90;;;;;;4980325;28;20201;-31
2022/05/03 02:45:18;;;;;;;12.30;11.10;;;9.10;99.90;;;;;;4980437;28;20183;-31
2022/05/03 02:48:07;;;;;;;12.53;11.23;;;9.00;99.90;;;;;;4996797;28;20175;-31
2022/05/03 02:50:54;;;;;;;14.87;11.87;;;9.00;99.90;;;;;;4958238;28;20281;-31
2022/05/03 02:53:40;;;;;;;12.93;11.47;;;8.90;99.90;;;;;;4996589;28;20191;-31
2022/05/03 02:56:23;;;;;;;11.67;10.57;;;8.80;99.90;;;;;;4996188;28;20175;-31
2022/05/03 03:01:47;;;;;;;14.27;11.33;;;8.90;99.90;;;;;;4979652;28;20217;-31
2022/05/03 03:02:28;;;;;;;11.07;9.90;;;9.00;99.90;;;;;;5013750;28;20175;-31
2022/05/03 03:05:08;;;;;;;11.67;10.47;;;9.00;99.90;;;;;;4979785;28;20178;-31
2022/05/03 03:07:50;;;;;;;11.70;10.60;;;8.90;99.90;;;;;;4996242;28;20201;-31
2022/05/03 03:10:48;;;;;;;14.47;9.40;;;8.90;99.90;;;;;;4979857;28;20214;-31
2022/05/03 03:13:44;;;;;;;10.80;9.67;;;8.90;99.90;;;;;;4979884;28;20198;-31
2022/05/03 03:16:13;;;;;;;11.57;9.57;;;8.90;99.90;;;;;;4996482;28;20191;-31
2022/05/03 03:18:43;;;;;;;13.07;10.27;;;8.80;99.90;;;;;;4996568;28;20195;-31
2022/05/03 03:21:12;;;;;;;11.47;9.40;;;8.80;99.90;;;;;;4996053;28;20198;-31
2022/05/03 03:23:40;;;;;;;10.87;9.73;;;8.70;99.90;;;;;;4979566;28;20189;-31
2022/05/03 03:26:09;;;;;;;10.57;9.20;;;8.70;99.90;;;;;;4996096;28;20187;-31
2022/05/03 03:28:36;;;;;;;10.87;9.73;;;8.70;99.90;;;;;;4995993;28;20202;-31
2022/05/03 03:31:03;;;;;;;10.17;9.17;;;8.70;99.90;;;;;;4975237;28;20210;-31
2022/05/03 03:33:34;;;;;;;11.13;9.07;;;8.60;99.90;;;;;;4992346;28;20176;-31
2022/05/03 03:36:03;;;;;;;12.37;9.60;;;8.70;99.90;;;;;;4976291;28;20169;-31
2022/05/03 03:38:37;;;;;;;10.67;9.57;;;8.70;99.90;;;;;;4976096;28;20202;-31
2022/05/03 03:41:04;;;;;;;10.10;9.10;;;8.70;99.90;;;;;;4976293;28;20249;-32
2022/05/03 03:43:30;;;;;;;12.37;10.00;;;8.70;99.90;;;;;;4976267;28;20191;-31
2022/05/03 03:45:56;;;;;;;10.97;9.77;;;8.70;99.90;;;;;;4959962;28;20186;-31
2022/05/03 03:48:22;;;;;;;12.27;9.90;;;8.70;99.90;;;;;;4959966;28;20183;-31
2022/05/03 03:50:49;;;;;;;10.67;9.57;;;8.70;99.90;;;;;;4975433;28;20199;-31
2022/05/03 03:53:15;;;;;;;11.13;9.93;;;8.70;99.90;;;;;;4959867;28;20187;-31
2022/05/03 03:55:44;;;;;;;10.60;9.50;;;8.60;99.90;;;;;;4975976;28;20651;-31
2022/05/03 03:58:10;;;;;;;10.47;9.47;;;8.70;99.90;;;;;;4959651;28;20187;-31
2022/05/03 04:00:36;;;;;;;10.93;9.57;;;8.70;99.90;;;;;;4985019;28;20285;-31
2022/05/03 04:03:04;;;;;;;10.53;9.43;;;8.70;99.90;;;;;;4975708;28;20317;-31
2022/05/03 04:05:34;;;;;;;12.47;10.17;;;8.70;99.90;;;;;;4959451;28;20198;-31
2022/05/03 04:08:01;;;;;;;10.83;9.73;;;8.80;99.90;;;;;;4975968;28;20195;-31
2022/05/03 04:10:29;;;;;;;11.93;9.60;;;8.80;99.90;;;;;;4979018;28;20256;-32
2022/05/03 04:12:55;;;;;;;11.03;9.93;;;8.80;99.90;;;;;;4972469;28;20293;-31
2022/05/03 04:15:21;;;;;;;11.60;10.40;;;8.70;99.90;;;;;;4958743;28;20318;-31
2022/05/03 04:17:47;;;;;;;14.13;12.10;;;8.70;99.90;;;;;;4975410;28;20172;-31
2022/05/03 04:20:15;;;;;;;14.57;12.87;;;8.60;99.90;;;;;;4958682;28;20261;-31
2022/05/03 04:22:41;;;;;;;15.13;13.33;;;8.50;99.90;;;;;;4959405;28;20188;-31
2022/05/03 04:25:08;;;;;;;16.70;13.00;;;8.30;99.90;;;;;;4975373;28;20322;-31
2022/05/03 04:27:33;;;;;;;15.97;13.17;;;8.30;99.90;;;;;;4959142;28;20187;-31
2022/05/03 04:30:01;;;;;;;15.23;13.60;;;8.20;99.90;;;;;;4981156;28;20229;-31
2022/05/03 04:32:31;;;;;;;15.47;13.80;;;8.20;99.90;;;;;;5011499;28;20202;-31
2022/05/03 04:34:57;;;;;;;16.53;14.33;;;8.20;99.90;;;;;;4994768;28;20643;-31
2022/05/03 04:37:23;;;;;;;16.30;14.60;;;8.20;99.90;;;;;;4994550;28;20232;-32
2022/05/03 04:39:50;;;;;;;18.63;15.87;;;8.10;99.90;;;;;;4994623;28;20202;-32
2022/05/03 04:42:16;;;;;;;16.43;14.60;;;8.00;99.90;;;;;;4994387;28;20182;-31
2022/05/03 04:44:42;;;;;;;16.17;14.57;;;8.10;99.90;;;;;;5012072;28;20186;-32
2022/05/03 04:47:07;;;;;;;17.03;15.23;;;8.30;99.90;;;;;;4977914;28;20187;-31
2022/05/03 04:49:34;;;;;;;15.20;13.60;;;8.30;99.90;;;;;;4994022;28;20272;-31
2022/05/03 04:52:00;;;;;;;14.67;13.13;;;8.40;99.90;;;;;;5011816;28;20208;-31
2022/05/03 04:54:26;;;;;;;17.20;13.20;;;8.40;99.90;;;;;;4994328;28;20197;-31
2022/05/03 04:57:03;;;;;;;15.13;13.40;;;8.50;99.90;;;;;;4994149;28;20190;-32
2022/05/03 04:59:29;;;;;;;15.30;13.60;;;8.50;99.90;;;;;;4993524;28;20679;-31
2022/05/03 05:01:54;;;;;;;15.17;13.57;;;8.60;99.90;;;;;;4977548;28;20213;-31
2022/05/03 05:04:20;;;;;;;13.57;12.27;;;8.60;99.90;;;;;;4978232;28;20241;-31
2022/05/03 05:06:46;;;;;;;13.50;11.93;;;8.70;99.90;;;;;;4977881;28;20181;-31
2022/05/03 05:09:12;;;;;;;14.13;12.00;;;8.80;99.90;;;;;;4993282;28;20211;-31
2022/05/03 05:11:38;;;;;;;15.33;12.27;;;8.90;99.90;;;;;;4992329;28;20293;-31
2022/05/03 05:14:04;;;;;;;13.13;11.80;;;9.00;99.90;;;;;;4976565;28;20178;-31
2022/05/03 05:16:30;;;;;;;13.37;11.97;;;9.10;99.90;;;;;;4977873;28;20194;-31
2022/05/03 05:18:55;;;;;;;13.13;11.83;;;9.20;99.90;;;;;;4977772;28;20195;-32
2022/05/03 05:21:21;;;;;;;13.33;11.93;;;9.20;99.90;;;;;;4979859;28;20179;-31
2022/05/03 05:23:47;;;;;;;17.63;11.63;;;9.30;99.90;;;;;;4979755;28;20576;-31
2022/05/03 05:26:13;;;;;;;13.10;11.57;;;9.50;99.90;;;;;;4977803;28;20191;-31
2022/05/03 05:28:39;;;;;;;12.40;11.10;;;9.50;99.90;;;;;;4993728;28;20300;-31
2022/05/03 05:31:05;;;;;;;12.07;10.87;;;9.60;99.90;;;;;;4977395;28;20215;-31
2022/05/03 05:33:31;;;;;;;16.00;10.30;;;9.70;99.90;;;;;;4993649;28;20175;-31
2022/05/03 05:35:57;;;;;;;11.77;10.57;;;9.80;99.90;;;;;;4993922;28;20198;-31
2022/05/03 05:38:23;;;;;;;12.93;11.30;;;9.80;99.90;;;;;;4993619;28;20183;-32
2022/05/03 05:40:49;;;;;;;12.57;10.87;;;10.00;99.90;;;;;;4993182;28;20175;-32
2022/05/03 05:43:16;;;;;;;12.33;11.10;;;10.10;99.90;;;;;;4977226;28;20175;-31
2022/05/03 05:45:42;;;;;;;12.00;10.70;;;10.20;99.90;;;;;;4993643;28;20183;-31
2022/05/03 05:48:09;;;;;;;12.00;10.80;;;10.30;99.90;;;;;;4977661;28;20244;-32
2022/05/03 05:50:35;;;;;;;13.90;11.20;;;10.50;99.90;;;;;;5011213;28;20168;-31
2022/05/03 05:55:45;;;;;;;12.57;11.37;;;10.70;99.90;;;;;;4993257;28;20186;-31
2022/05/03 05:58:11;;;;;;;11.73;10.53;;;10.80;99.90;;;;;;4977375;28;20298;-32
2022/05/03 06:00:37;;;;;;;11.97;10.60;;;10.80;99.90;;;;;;4990112;28;20190;-31
2022/05/03 06:03:05;;;;;;;12.10;10.80;;;10.90;99.90;;;;;;4957814;28;20183;-31
2022/05/03 06:05:32;;;;;;;11.90;10.70;;;10.90;99.90;;;;;;4974109;28;20241;-31
2022/05/03 06:07:58;;;;;;;13.10;11.70;;;11.00;99.90;;;;;;4973829;28;20179;-31
2022/05/03 06:10:24;;;;;;;12.83;11.63;;;11.10;99.90;;;;;;4957385;28;20587;-31
2022/05/03 06:12:50;;;;;;;13.27;10.77;;;11.20;99.90;;;;;;4957556;28;20211;-32
2022/05/03 06:15:19;;;;;;;13.60;12.13;;;11.30;99.90;;;;;;4957639;28;20238;-31
2022/05/03 06:17:45;;;;;;;12.57;11.27;;;11.40;99.90;;;;;;4956348;28;20169;-31
2022/05/03 06:20:11;;;;;;;14.60;11.77;;;11.40;99.90;;;;;;4972129;28;20254;-31
2022/05/03 06:22:39;;;;;;;13.50;11.10;;;11.40;99.90;;;;;;4972253;28;20184;-31
2022/05/03 06:25:08;;;;;;;13.03;11.40;;;11.40;99.90;;;;;;4989692;28;20168;-32
2022/05/03 06:27:35;;;;;;;12.27;11.07;;;11.50;99.90;;;;;;4972627;28;20238;-32
2022/05/03 06:30:03;;;;;;;11.73;10.53;;;11.60;99.90;;;;;;4979480;28;20212;-31
2022/05/03 06:32:29;;;;;;;13.37;12.07;;;11.70;99.90;;;;;;4976033;28;20207;-32
2022/05/03 06:34:55;;;;;;;12.17;11.07;;;11.70;99.90;;;;;;4974481;28;20180;-32
2022/05/03 06:37:20;;;;;;;12.87;11.60;;;11.70;99.90;;;;;;4973218;28;20184;-31
2022/05/03 06:39:46;;;;;;;13.57;11.47;;;11.80;99.90;;;;;;4972795;28;20266;-32
2022/05/03 06:42:12;;;;;;;12.17;10.87;;;11.90;99.90;;;;;;4989502;28;20181;-31
2022/05/03 06:44:38;;;;;;;12.33;10.73;;;12.00;99.90;;;;;;4973238;28;20184;-31
2022/05/03 06:47:05;;;;;;;12.67;11.37;;;12.00;99.90;;;;;;4973759;28;20184;-32
2022/05/03 06:49:31;;;;;;;12.40;10.97;;;12.10;99.90;;;;;;4957220;28;20209;-32
2022/05/03 06:51:56;;;;;;;11.90;10.57;;;12.10;99.90;;;;;;4973739;28;20203;-32
2022/05/03 06:54:22;;;;;;;12.40;10.93;;;12.20;99.90;;;;;;4976683;28;20190;-32
2022/05/03 06:56:48;;;;;;;11.73;10.57;;;12.30;99.90;;;;;;4993241;28;20180;-32
2022/05/03 06:59:14;;;;;;;13.13;11.77;;;12.30;99.90;;;;;;4978004;28;20216;-32
2022/05/03 07:01:39;;;;;;;12.40;11.27;;;12.40;99.90;;;;;;5010442;28;20204;-32
2022/05/03 07:04:05;;;;;;;13.43;12.03;;;12.40;99.90;;;;;;4984407;28;20167;-32
2022/05/03 07:06:33;;;;;;;13.40;11.27;;;12.50;99.90;;;;;;4970676;28;20183;-31
2022/05/03 07:08:58;;;;;;;11.93;10.60;;;12.50;99.90;;;;;;4969798;28;20194;-29
2022/05/03 07:11:24;;;;;;;12.80;11.63;;;12.60;99.90;;;;;;4969296;28;20223;-30
2022/05/03 07:13:51;;;;;;;13.77;11.37;;;12.70;99.90;;;;;;4971132;28;20180;-29
2022/05/03 07:16:18;;;;;;;11.90;10.70;;;12.80;99.90;;;;;;4969635;28;20177;-31
2022/05/03 07:24:13;;;;;;;12.27;11.07;;;12.80;99.90;;;;;;4984976;28;20176;-31
2022/05/03 07:26:42;;;;;;;12.23;11.03;;;12.90;99.90;;;;;;5002280;28;20618;-31
2022/05/03 07:29:08;;;;;;;12.30;11.00;;;12.90;99.90;;;;;;4983235;28;20297;-30
2022/05/03 07:31:34;;;;;;;11.93;10.87;;;13.00;99.90;;;;;;4987259;28;20211;-30
2022/05/03 07:34:00;;;;;;;12.47;11.37;;;13.10;99.90;;;;;;4984886;28;20232;-29
2022/05/03 07:36:29;;;;;;;12.87;11.57;;;13.20;99.90;;;;;;4986639;28;20178;-31
2022/05/03 07:38:55;;;;;;;13.00;11.70;;;13.30;99.90;;;;;;4969126;28;20209;-30
2022/05/03 07:41:24;;;;;;;12.70;11.47;;;13.40;99.90;;;;;;4968844;28;20280;-31
2022/05/03 07:43:50;;;;;;;12.40;11.20;;;13.40;99.90;;;;;;4975527;28;20257;-31
2022/05/03 07:46:16;;;;;;;12.93;11.53;;;13.50;99.90;;;;;;4974640;28;20206;-30
2022/05/03 07:48:42;;;;;;;13.03;11.60;;;13.60;99.90;;;;;;4975950;28;20230;-30
2022/05/03 07:51:12;;;;;;;12.43;11.33;;;13.70;99.90;;;;;;4962701;28;20687;-29
2022/05/03 07:53:40;;;;;;;13.03;11.73;;;13.90;99.90;;;;;;4968163;28;20184;-32
2022/05/03 07:56:06;;;;;;;13.10;11.67;;;13.90;99.90;;;;;;4985928;28;20298;-30
2022/05/03 07:58:35;;;;;;;13.60;12.10;;;14.00;99.90;;;;;;4969784;28;20211;-30
2022/05/03 08:01:02;;;;;;;14.33;11.87;;;14.20;99.90;;;;;;4970901;28;20195;-31
2022/05/03 08:03:28;;;;;;;14.17;12.47;;;14.30;99.90;;;;;;4968661;28;20182;-30
2022/05/03 08:05:55;;;;;;;11.87;10.77;;;14.50;99.90;;;;;;4970234;28;20631;-31
2022/05/03 08:08:20;;;;;;;13.53;12.33;;;14.50;99.90;;;;;;4968428;28;20180;-30
2022/05/03 08:10:49;;;;;;;13.70;12.40;;;14.50;99.90;;;;;;4986429;28;20205;-30
2022/05/03 08:13:15;;;;;;;12.33;11.23;;;14.30;99.90;;;;;;4998308;28;20183;-31
2022/05/03 08:15:42;;;;;;;12.87;11.57;;;14.50;99.90;;;;;;4985615;28;20172;-30
2022/05/03 08:18:10;;;;;;;13.77;12.37;;;14.60;99.90;;;;;;4963773;28;20179;-30
2022/05/03 08:20:38;;;;;;;12.60;11.40;;;14.70;99.90;;;;;;4986890;28;20180;-32
2022/05/03 08:23:04;;;;;;;13.07;11.67;;;14.90;99.90;;;;;;4974624;28;20203;-31
2022/05/03 08:25:32;;;;;;;12.73;11.53;;;15.00;99.90;;;;;;4975142;28;20184;-33
2022/05/03 08:27:58;;;;;;;13.80;12.50;;;15.20;99.90;;;;;;4958087;28;20184;-31
2022/05/03 08:30:24;;;;;;;14.03;11.93;;;15.40;99.90;;;;;;4985367;28;20306;-32
2022/05/03 08:32:49;;;;;;;12.73;11.53;;;15.40;99.90;;;;;;4994567;28;20233;-32
2022/05/03 08:35:15;;;;;;;13.17;11.87;;;15.60;99.90;;;;;;4978562;28;20171;-32
2022/05/03 08:43:11;;;;;;;12.00;10.80;;;16.00;99.90;;;;;;4994463;28;20194;-33
2022/05/03 08:45:37;;;;;;;11.70;10.50;;;16.10;99.90;;;;;;4994323;28;20191;-32
2022/05/03 08:48:03;;;;;;;12.83;11.60;;;16.40;99.90;;;;;;4994793;28;20183;-32
2022/05/03 08:50:32;;;;;;;12.33;11.03;;;16.60;99.90;;;;;;4994374;28;20234;-33
2022/05/03 08:53:01;;;;;;;11.97;10.87;;;16.80;99.90;;;;;;5012276;28;20191;-32
2022/05/03 08:55:27;;;;;;;11.80;10.63;;;17.00;99.90;;;;;;4994160;28;20183;-31
2022/05/03 08:57:53;;;;;;;12.50;11.03;;;17.00;99.90;;;;;;4994272;28;20225;-32
2022/05/03 09:00:20;;;;;;;12.70;11.50;;;17.10;99.90;;;;;;4990615;28;20215;-32
2022/05/03 09:02:48;;;;;;;13.03;11.53;;;17.20;99.90;;;;;;4991983;28;20208;-32
2022/05/03 09:05:14;;;;;;;12.18;10.90;;;17.30;99.90;;;;;;4958582;28;20274;-32
2022/05/03 09:07:53;;;;;;;11.45;10.35;;;17.50;99.90;;;;;;4974997;28;20186;-32
2022/05/03 09:10:25;;;;;;;11.43;10.32;;;17.70;99.90;;;;;;4974721;28;20223;-33
2022/05/03 09:12:51;;;;;;;10.55;9.55;;;18.00;99.90;;;;;;4992016;28;20235;-32
2022/05/03 09:15:32;;;;;;;11.02;9.85;;;18.30;99.90;;;;;;4991402;28;20176;-33
2022/05/03 09:17:58;;;;;;;9.63;8.73;;;18.50;99.90;;;;;;4974456;28;20591;-32
2022/05/03 09:26:15;;;;;;;10.02;9.05;;;18.60;99.90;;;;;;4991830;28;20187;-32
2022/05/03 09:29:05;;;;;;;9.20;8.20;;;18.40;99.90;;;;;;4974353;28;20206;-32
2022/05/03 09:31:46;;;;;;;9.65;8.65;;;18.60;99.90;;;;;;4991755;28;20282;-32
2022/05/03 09:34:25;;;;;;;9.02;8.23;;;18.60;99.90;;;;;;4974258;28;20176;-32
2022/05/03 09:36:58;;;;;;;9.75;8.85;;;19.00;99.90;;;;;;4994119;28;20167;-33
2022/05/03 09:39:27;;;;;;;9.70;8.80;;;19.00;99.90;;;;;;4966398;28;20290;-32
2022/05/03 09:42:04;;;;;;;8.80;7.95;;;19.00;99.90;;;;;;4982519;28;20184;-32
2022/05/03 09:44:36;;;;;;;9.30;8.00;;;19.10;99.90;;;;;;4950152;28;20190;-33
2022/05/03 09:47:09;;;;;;;8.75;8.05;;;19.00;99.90;;;;;;5000257;28;20183;-33
2022/05/03 09:49:40;;;;;;;7.65;6.95;;;19.10;99.90;;;;;;4999037;28;20216;-33
2022/05/03 09:52:09;;;;;;;8.63;7.82;;;19.40;99.90;;;;;;4984342;28;20232;-33
2022/05/03 09:54:49;;;;;;;7.93;7.13;;;19.70;99.90;;;;;;4984757;28;20179;-33
2022/05/03 09:57:26;;;;;;;7.57;6.88;;;20.00;99.90;;;;;;4982525;28;20258;-33
2022/05/03 09:59:55;;;;;;;7.22;6.53;;;20.00;99.90;;;;;;4968795;28;20258;-34
2022/05/03 10:02:25;;;;;;;8.02;7.13;;;19.90;99.90;;;;;;4982931;28;20187;-33
2022/05/03 10:04:53;;;;;;;6.70;6.15;;;20.30;99.90;;;;;;4983930;28;20234;-33
2022/05/03 10:07:23;;;;;;;7.10;6.50;;;20.60;99.90;;;;;;4983436;28;20180;-32
2022/05/03 10:09:50;;;;;;;7.07;6.25;;;20.80;99.90;;;;;;4965663;28;20294;-33
2022/05/03 10:12:19;;;;;;;8.32;7.53;;;20.70;99.90;;;;;;4967301;28;20207;-33
2022/05/03 10:14:48;;;;;;;7.72;7.03;;;20.90;99.90;;;;;;4965527;28;20216;-33
2022/05/03 10:20:42;;;;;;;7.45;6.70;;;21.30;99.90;;;;;;4996209;28;20283;-33
2022/05/03 10:23:33;;;;;;;7.82;7.10;;;21.00;99.90;;;;;;4996583;28;20184;-33
2022/05/03 10:26:05;;;;;;;6.10;5.50;;;21.00;99.90;;;;;;4984137;28;20242;-33
2022/05/03 10:29:05;;;;;;;6.68;6.07;;;21.20;99.90;;;;;;4986256;28;20250;-32
2022/05/03 10:32:02;;;;;;;5.43;4.93;;;21.50;99.90;;;;;;4987653;28;20210;-32
2022/05/03 10:34:59;;;;;;;5.90;5.30;;;22.10;99.90;;;;;;4982366;28;20258;-33
2022/05/03 10:37:34;;;;;;;6.15;5.47;;;22.40;99.90;;;;;;4977151;28;20186;-33
2022/05/03 10:40:08;;;;;;;7.07;5.53;;;22.50;99.90;;;;;;4960138;28;20219;-33
2022/05/03 10:42:34;;;;;;;6.65;6.05;;;22.10;99.90;;;;;;4961099;28;20207;-33
2022/05/03 10:45:09;;;;;;;7.75;7.03;;;22.30;99.90;;;;;;4961082;28;20188;-33
2022/05/03 10:47:48;;;;;;;7.18;6.57;;;22.50;99.90;;;;;;4976757;28;20186;-33
2022/05/03 10:50:17;;;;;;;5.47;4.97;;;22.30;99.90;;;;;;4960707;28;20204;-33
2022/05/03 10:52:55;;;;;;;3.92;3.53;;;21.90;99.90;;;;;;4982042;28;20217;-33
2022/05/03 10:55:28;;;;;;;3.78;3.47;;;21.90;99.90;;;;;;5002139;28;20179;-33
2022/05/03 10:58:23;;;;;;;3.72;3.42;;;21.70;99.90;;;;;;4995470;28;20183;-32
2022/05/03 11:01:09;;;;;;;4.10;3.70;;;21.10;99.90;;;;;;4996351;28;20192;-32
2022/05/03 11:03:47;;;;;;;4.03;3.72;;;20.70;99.90;;;;;;4996149;28;20696;-33
2022/05/03 11:06:20;;;;;;;3.70;3.40;;;20.10;99.90;;;;;;4979795;28;20198;-31
2022/05/03 11:11:47;;;;;;;3.83;3.53;;;20.00;99.90;;;;;;4996271;28;20261;-32
2022/05/03 11:14:16;;;;;;;4.63;3.58;;;19.90;99.90;;;;;;4996316;28;20182;-33
2022/05/03 11:16:42;;;;;;;4.10;3.80;;;19.70;99.90;;;;;;4996363;28;20186;-32
2022/05/03 11:19:13;;;;;;;3.40;3.10;;;19.90;99.90;;;;;;4996100;28;20203;-33
2022/05/03 11:21:40;;;;;;;3.42;3.20;;;20.00;99.90;;;;;;4975097;28;20194;-32
2022/05/03 11:24:16;;;;;;;3.90;3.55;;;20.00;99.90;;;;;;4976348;28;20180;-33
2022/05/03 11:26:44;;;;;;;3.83;3.40;;;20.30;99.90;;;;;;4973884;28;20188;-32
2022/05/03 11:29:14;;;;;;;4.03;3.60;;;20.20;99.90;;;;;;4976697;28;20207;-33
2022/05/03 11:31:50;;;;;;;4.05;3.50;;;20.20;99.90;;;;;;4979468;28;20301;-33
2022/05/03 11:34:18;;;;;;;4.32;3.28;;;20.50;99.90;;;;;;4997991;28;20171;-33
2022/05/03 11:36:49;;;;;;;3.63;3.33;;;20.90;99.90;;;;;;4997243;28;20179;-33
2022/05/03 11:39:16;;;;;;;3.00;2.80;;;21.10;99.90;;;;;;4994770;28;20257;-33
2022/05/03 11:41:43;;;;;;;5.28;3.28;;;20.80;99.90;;;;;;4995313;28;20183;-32
2022/05/03 11:44:10;;;;;;;3.50;3.20;;;20.80;99.90;;;;;;4995914;28;20267;-33
2022/05/03 11:46:38;;;;;;;3.30;3.00;;;20.50;99.90;;;;;;4979212;28;20238;-33
2022/05/03 11:49:05;;;;;;;3.45;2.90;;;20.50;99.90;;;;;;5012707;28;20191;-33
2022/05/03 11:57:08;;;;;;;3.17;2.92;;;20.50;99.90;;;;;;4987190;28;20184;-34
2022/05/03 11:59:34;;;;;;;3.45;3.15;;;20.50;99.90;;;;;;4975699;28;20207;-33
2022/05/03 12:02:17;;;;;;;3.83;2.95;;;20.50;99.80;;;;;;4984748;28;20201;-33
2022/05/03 12:05:05;;;;;;;3.47;2.78;;;20.40;99.90;;;;;;4983058;28;20218;-33
2022/05/03 12:07:55;;;;;;;2.97;2.78;;;20.20;98.80;;;;;;5000796;28;20180;-32
2022/05/03 12:10:34;;;;;;;5.00;2.95;;;19.90;99.90;;;;;;4984861;28;20203;-33
2022/05/03 12:13:17;;;;;;;2.80;2.60;;;19.90;99.90;;;;;;4968949;28;20199;-33
2022/05/03 12:15:48;;;;;;;2.72;2.50;;;19.90;99.90;;;;;;5001291;28;20186;-33
2022/05/03 12:18:33;;;;;;;3.00;2.80;;;19.90;99.90;;;;;;4967976;28;20194;-33
2022/05/03 12:21:08;;;;;;;3.33;3.05;;;20.00;99.90;;;;;;4984987;28;20266;-33
2022/05/03 12:23:34;;;;;;;4.30;3.30;;;20.00;99.90;;;;;;5001273;28;20182;-33
2022/05/03 12:26:01;;;;;;;3.38;2.90;;;20.00;99.90;;;;;;5002050;28;20175;-33
2022/05/03 12:28:39;;;;;;;10.80;4.20;;;20.10;99.90;;;;;;4984197;28;20245;-34
2022/05/03 12:31:06;;;;;;;8.82;5.00;;;19.90;99.90;;;;;;4969729;28;20192;-38
2022/05/03 12:33:32;;;;;;;9.00;5.07;;;19.80;99.90;;;;;;4984304;28;20180;-35
2022/05/03 12:35:59;;;;;;;5.15;4.47;;;19.40;99.90;;;;;;4984016;28;20230;-34
2022/05/03 12:38:26;;;;;;;5.35;4.50;;;19.20;99.90;;;;;;5000945;28;20265;-33
2022/05/03 12:40:55;;;;;;;5.57;4.38;;;19.20;99.90;;;;;;4983660;28;20184;-33
2022/05/03 12:43:23;;;;;;;4.07;3.67;;;19.10;99.90;;;;;;4983492;28;20671;-34
2022/05/03 12:46:00;;;;;;;4.93;3.83;;;19.00;99.90;;;;;;4983942;28;20217;-34
2022/05/03 12:48:27;;;;;;;4.60;3.70;;;19.00;99.90;;;;;;4983642;28;20195;-34
2022/05/03 12:50:55;;;;;;;4.82;3.40;;;19.10;99.90;;;;;;4994971;28;20276;-34
2022/05/03 12:53:28;;;;;;;3.50;3.17;;;19.30;99.90;;;;;;4947898;28;20215;-34
2022/05/03 12:55:56;;;;;;;3.70;3.40;;;19.60;99.90;;;;;;4977904;28;20226;-33
2022/05/03 12:58:24;;;;;;;5.18;4.47;;;19.90;99.90;;;;;;4983824;28;20210;-34
2022/05/03 13:00:57;;;;;;;3.85;3.53;;;20.20;99.90;;;;;;4982242;28;20245;-33
2022/05/03 13:03:24;;;;;;;3.97;3.60;;;20.30;99.90;;;;;;4987494;28;20191;-33
2022/05/03 13:05:51;;;;;;;4.40;3.60;;;20.60;99.90;;;;;;5003344;28;20187;-33
2022/05/03 13:08:18;;;;;;;4.40;3.60;;;20.90;99.90;;;;;;4973979;28;20190;-34
2022/05/03 13:10:45;;;;;;;4.35;3.92;;;21.00;99.90;;;;;;4968324;28;20198;-33
2022/05/03 13:13:12;;;;;;;5.18;3.63;;;21.20;99.90;;;;;;4983525;28;20751;-33
2022/05/03 13:15:41;;;;;;;3.85;3.53;;;21.40;99.90;;;;;;4998084;28;20191;-33
2022/05/03 13:18:07;;;;;;;4.82;3.90;;;21.70;99.90;;;;;;4967430;28;20175;-34
2022/05/03 13:20:33;;;;;;;4.05;3.65;;;22.00;99.90;;;;;;4967188;28;20187;-33
2022/05/03 13:23:00;;;;;;;4.15;3.75;;;22.10;99.90;;;;;;4982022;28;20192;-34
2022/05/03 13:25:26;;;;;;;4.03;3.72;;;22.40;99.90;;;;;;4982903;28;20194;-34
2022/05/03 13:27:53;;;;;;;4.90;3.90;;;22.80;99.90;;;;;;4967508;28;20183;-33
2022/05/03 13:30:19;;;;;;;3.83;3.53;;;23.00;99.90;;;;;;4972854;28;20195;-34
2022/05/03 13:32:45;;;;;;;4.57;3.40;;;22.70;99.90;;;;;;4983568;28;20250;-33
2022/05/03 13:35:11;;;;;;;4.35;3.95;;;22.90;99.90;;;;;;4980609;28;20262;-33
2022/05/03 13:40:33;;;;;;;3.22;2.10;;;23.50;99.90;;;;;;4980961;28;20235;-33